sensor_id;sensor_type;location;lat;lon;timestamp;pressure;altitude;pressure_sealevel;temperature;humidity
26711;BME280;18311;52.754;18.118;2023-02-18T00:02:29;99669.47;;;16.41;45.67
26711;BME280;18311;52.754;18.118;2023-02-18T00:05:02;99651.08;;;16.35;46.41
26711;BME280;18311;52.754;18.118;2023-02-18T00:07:36;99651.08;;;16.35;46.41
26711;BME280;18311;52.754;18.118;2023-02-18T00:10:11;99644.14;;;15.87;46.91
26711;BME280;18311;52.754;18.118;2023-02-18T00:12:42;99629.54;;;15.90;47.14
26711;BME280;18311;52.754;18.118;2023-02-18T00:15:13;99665.38;;;15.56;47.90
26711;BME280;18311;52.754;18.118;2023-02-18T00:30:41;99644.00;;;14.23;53.10
26711;BME280;18311;52.754;18.118;2023-02-18T00:33:11;99652.14;;;15.42;48.86
26711;BME280;18311;52.754;18.118;2023-02-18T00:35:42;99651.34;;;16.09;47.36
26711;BME280;18311;52.754;18.118;2023-02-18T00:38:12;99668.11;;;15.67;47.45
26711;BME280;18311;52.754;18.118;2023-02-18T00:40:44;99671.54;;;15.70;47.29
26711;BME280;18311;52.754;18.118;2023-02-18T00:56:50;99683.17;;;14.51;51.93
26711;BME280;18311;52.754;18.118;2023-02-18T00:59:20;99682.11;;;15.84;48.92
26711;BME280;18311;52.754;18.118;2023-02-18T01:01:51;99661.52;;;16.05;48.12
26711;BME280;18311;52.754;18.118;2023-02-18T01:04:21;99676.12;;;16.03;47.71
26711;BME280;18311;52.754;18.118;2023-02-18T01:06:52;99659.33;;;15.99;47.83
26711;BME280;18311;52.754;18.118;2023-02-18T01:09:22;99709.30;;;15.81;46.99
26711;BME280;18311;52.754;18.118;2023-02-18T01:11:53;99659.64;;;15.72;47.27
26711;BME280;18311;52.754;18.118;2023-02-18T01:14:24;99636.86;;;16.21;46.62
26711;BME280;18311;52.754;18.118;2023-02-18T01:16:55;99745.31;;;15.44;47.18
26711;BME280;18311;52.754;18.118;2023-02-18T01:19:25;99624.15;;;15.44;47.18
26711;BME280;18311;52.754;18.118;2023-02-18T01:21:56;99696.83;;;15.90;47.14
26711;BME280;18311;52.754;18.118;2023-02-18T01:24:26;99696.83;;;15.44;47.12
26711;BME280;18311;52.754;18.118;2023-02-18T01:26:57;99736.72;;;15.39;47.04
26711;BME280;18311;52.754;18.118;2023-02-18T01:29:27;99713.56;;;15.25;46.31
26711;BME280;18311;52.754;18.118;2023-02-18T01:31:59;99698.09;;;15.16;47.34
26711;BME280;18311;52.754;18.118;2023-02-18T01:55:43;99674.28;;;14.75;52.12
26711;BME280;18311;52.754;18.118;2023-02-18T01:58:16;99694.06;;;15.57;48.64
26711;BME280;18311;52.754;18.118;2023-02-18T02:00:47;99693.88;;;16.05;47.31
26711;BME280;18311;52.754;18.118;2023-02-18T02:03:18;99747.45;;;16.10;45.76
26711;BME280;18311;52.754;18.118;2023-02-18T02:17:43;99719.73;;;14.04;50.72
26711;BME280;18311;52.754;18.118;2023-02-18T02:20:30;99719.87;;;15.48;47.04
26711;BME280;18311;52.754;18.118;2023-02-18T02:31:42;99692.78;;;15.03;46.21
26711;BME280;18311;52.754;18.118;2023-02-18T02:37:11;99759.25;;;15.74;45.23
26711;BME280;18311;52.754;18.118;2023-02-18T02:42:48;99726.09;;;15.38;45.57
26711;BME280;18311;52.754;18.118;2023-02-18T02:48:37;99748.40;;;15.16;46.10
26711;BME280;18311;52.754;18.118;2023-02-18T02:51:14;99733.72;;;15.91;44.60
26711;BME280;18311;52.754;18.118;2023-02-18T02:53:45;99723.47;;;15.01;46.49
26711;BME280;18311;52.754;18.118;2023-02-18T02:56:21;99740.50;;;15.01;46.71
26711;BME280;18311;52.754;18.118;2023-02-18T02:58:57;99742.33;;;15.60;45.15
26711;BME280;18311;52.754;18.118;2023-02-18T03:10:29;99753.72;;;14.80;46.81
26711;BME280;18311;52.754;18.118;2023-02-18T03:26:24;99756.84;;;13.86;51.69
26711;BME280;18311;52.754;18.118;2023-02-18T03:28:59;99748.95;;;14.34;49.82
26711;BME280;18311;52.754;18.118;2023-02-18T03:31:31;99731.84;;;15.44;47.25
26711;BME280;18311;52.754;18.118;2023-02-18T03:34:12;99735.59;;;14.84;47.89
26711;BME280;18311;52.754;18.118;2023-02-18T03:36:43;99735.59;;;14.58;47.88
26711;BME280;18311;52.754;18.118;2023-02-18T03:39:17;99764.17;;;15.44;46.34
26711;BME280;18311;52.754;18.118;2023-02-18T03:41:48;99743.39;;;15.46;46.45
26711;BME280;18311;52.754;18.118;2023-02-18T03:44:20;99720.22;;;15.08;47.04
26711;BME280;18311;52.754;18.118;2023-02-18T03:46:50;99768.79;;;15.66;46.31
26711;BME280;18311;52.754;18.118;2023-02-18T03:49:22;99743.25;;;15.48;46.39
26711;BME280;18311;52.754;18.118;2023-02-18T03:51:53;99778.23;;;15.37;46.30
26711;BME280;18311;52.754;18.118;2023-02-18T03:54:23;99748.91;;;15.56;45.99
26711;BME280;18311;52.754;18.118;2023-02-18T03:56:54;99799.05;;;15.94;45.03
26711;BME280;18311;52.754;18.118;2023-02-18T03:59:24;99778.93;;;15.87;45.51
26711;BME280;18311;52.754;18.118;2023-02-18T04:01:55;99771.59;;;15.29;45.94
26711;BME280;18311;52.754;18.118;2023-02-18T04:04:26;99762.70;;;15.40;46.23
26711;BME280;18311;52.754;18.118;2023-02-18T04:06:57;99800.89;;;15.10;46.14
26711;BME280;18311;52.754;18.118;2023-02-18T04:09:28;99757.02;;;16.14;45.15
26711;BME280;18311;52.754;18.118;2023-02-18T04:11:58;99779.39;;;15.81;45.51
26711;BME280;18311;52.754;18.118;2023-02-18T04:14:29;99768.28;;;15.26;46.00
26711;BME280;18311;52.754;18.118;2023-02-18T04:16:59;99772.22;;;15.68;45.48
26711;BME280;18311;52.754;18.118;2023-02-18T04:19:30;99760.23;;;15.37;45.93
26711;BME280;18311;52.754;18.118;2023-02-18T04:22:00;99777.08;;;15.52;45.64
26711;BME280;18311;52.754;18.118;2023-02-18T04:24:31;99753.90;;;15.14;46.88
26711;BME280;18311;52.754;18.118;2023-02-18T04:27:01;99757.44;;;14.41;47.79
26711;BME280;18311;52.754;18.118;2023-02-18T04:29:32;99773.16;;;15.21;46.64
26711;BME280;18311;52.754;18.118;2023-02-18T04:32:03;99758.32;;;15.15;47.02
26711;BME280;18311;52.754;18.118;2023-02-18T04:34:35;99772.04;;;14.75;47.34
26711;BME280;18311;52.754;18.118;2023-02-18T04:37:05;99781.80;;;14.89;46.74
26711;BME280;18311;52.754;18.118;2023-02-18T04:39:36;99778.85;;;14.92;47.28
26711;BME280;18311;52.754;18.118;2023-02-18T04:42:06;99800.70;;;15.00;46.61
26711;BME280;18311;52.754;18.118;2023-02-18T04:44:38;99771.06;;;15.48;45.88
26711;BME280;18311;52.754;18.118;2023-02-18T04:47:10;99806.67;;;14.80;47.39
26711;BME280;18311;52.754;18.118;2023-02-18T04:49:42;99793.26;;;14.67;48.03
26711;BME280;18311;52.754;18.118;2023-02-18T04:52:12;99787.94;;;15.15;46.98
26711;BME280;18311;52.754;18.118;2023-02-18T04:54:43;99810.94;;;14.95;47.02
26711;BME280;18311;52.754;18.118;2023-02-18T04:57:14;99801.33;;;14.41;47.88
26711;BME280;18311;52.754;18.118;2023-02-18T04:59:44;99851.58;;;14.41;47.89
26711;BME280;18311;52.754;18.118;2023-02-18T05:02:16;99792.29;;;15.05;47.01
26711;BME280;18311;52.754;18.118;2023-02-18T05:04:47;99803.27;;;14.65;47.35
26711;BME280;18311;52.754;18.118;2023-02-18T05:07:18;99809.36;;;14.80;46.96
26711;BME280;18311;52.754;18.118;2023-02-18T05:09:48;99814.90;;;15.02;46.99
26711;BME280;18311;52.754;18.118;2023-02-18T05:12:19;99808.61;;;14.90;48.04
26711;BME280;18311;52.754;18.118;2023-02-18T05:14:49;99809.97;;;14.21;48.47
26711;BME280;18311;52.754;18.118;2023-02-18T05:17:20;99832.95;;;14.76;47.61
26711;BME280;18311;52.754;18.118;2023-02-18T05:19:50;99826.72;;;14.11;48.32
26711;BME280;18311;52.754;18.118;2023-02-18T05:22:21;99814.90;;;14.27;48.65
26711;BME280;18311;52.754;18.118;2023-02-18T05:24:51;99805.53;;;15.08;47.00
26711;BME280;18311;52.754;18.118;2023-02-18T05:27:22;99795.58;;;14.84;47.14
26711;BME280;18311;52.754;18.118;2023-02-18T05:29:52;99855.39;;;15.01;46.32
26711;BME280;18311;52.754;18.118;2023-02-18T05:32:23;99843.07;;;14.85;46.99
26711;BME280;18311;52.754;18.118;2023-02-18T05:34:54;99807.77;;;14.51;48.38
26711;BME280;18311;52.754;18.118;2023-02-18T05:37:24;99821.13;;;14.66;46.99
26711;BME280;18311;52.754;18.118;2023-02-18T05:39:55;99837.58;;;14.48;46.97
26711;BME280;18311;52.754;18.118;2023-02-18T05:42:25;99827.63;;;15.73;45.36
26711;BME280;18311;52.754;18.118;2023-02-18T05:44:56;99831.88;;;14.79;46.60
26711;BME280;18311;52.754;18.118;2023-02-18T05:47:27;99830.94;;;14.15;47.85
26711;BME280;18311;52.754;18.118;2023-02-18T05:49:57;99832.13;;;14.63;47.03
26711;BME280;18311;52.754;18.118;2023-02-18T05:52:28;99849.84;;;14.40;47.44
26711;BME280;18311;52.754;18.118;2023-02-18T05:54:58;99852.52;;;14.01;48.33
26711;BME280;18311;52.754;18.118;2023-02-18T05:57:29;99875.78;;;13.75;48.18
26711;BME280;18311;52.754;18.118;2023-02-18T05:59:59;99858.77;;;14.02;48.04
26711;BME280;18311;52.754;18.118;2023-02-18T06:02:30;99853.40;;;14.02;47.80
26711;BME280;18311;52.754;18.118;2023-02-18T06:05:03;99890.42;;;14.49;46.67
26711;BME280;18311;52.754;18.118;2023-02-18T06:07:33;99877.20;;;14.72;46.42
26711;BME280;18311;52.754;18.118;2023-02-18T06:10:06;99883.22;;;14.37;47.11
26711;BME280;18311;52.754;18.118;2023-02-18T06:12:36;99869.55;;;14.40;47.04
26711;BME280;18311;52.754;18.118;2023-02-18T06:15:07;99865.23;;;14.38;47.28
26711;BME280;18311;52.754;18.118;2023-02-18T06:17:38;99894.50;;;14.94;46.41
26711;BME280;18311;52.754;18.118;2023-02-18T06:20:11;99859.69;;;15.40;45.00
26711;BME280;18311;52.754;18.118;2023-02-18T06:22:44;99870.63;;;14.89;46.11
26711;BME280;18311;52.754;18.118;2023-02-18T06:25:16;99880.48;;;13.98;47.48
26711;BME280;18311;52.754;18.118;2023-02-18T06:27:53;99879.03;;;14.33;47.00
26711;BME280;18311;52.754;18.118;2023-02-18T06:30:25;99878.87;;;15.36;45.77
26711;BME280;18311;52.754;18.118;2023-02-18T06:32:58;99869.99;;;14.47;46.72
26711;BME280;18311;52.754;18.118;2023-02-18T06:35:31;99885.45;;;14.43;47.58
26711;BME280;18311;52.754;18.118;2023-02-18T06:38:04;99900.55;;;14.84;46.19
26711;BME280;18311;52.754;18.118;2023-02-18T06:40:38;99901.19;;;14.49;46.96
26711;BME280;18311;52.754;18.118;2023-02-18T06:43:09;99889.33;;;15.03;46.06
26711;BME280;18311;52.754;18.118;2023-02-18T06:45:41;99916.28;;;13.99;47.78
26711;BME280;18311;52.754;18.118;2023-02-18T06:48:13;99904.19;;;14.45;47.65
26711;BME280;18311;52.754;18.118;2023-02-18T06:50:48;99925.53;;;14.99;46.57
26711;BME280;18311;52.754;18.118;2023-02-18T06:53:23;99938.80;;;14.24;47.35
26711;BME280;18311;52.754;18.118;2023-02-18T06:55:55;99923.37;;;14.91;46.40
26711;BME280;18311;52.754;18.118;2023-02-18T06:58:31;99935.87;;;14.93;46.03
26711;BME280;18311;52.754;18.118;2023-02-18T07:01:04;99913.20;;;14.31;47.23
26711;BME280;18311;52.754;18.118;2023-02-18T07:03:37;99909.19;;;15.26;45.68
26711;BME280;18311;52.754;18.118;2023-02-18T07:06:09;99946.41;;;14.83;46.80
26711;BME280;18311;52.754;18.118;2023-02-18T07:08:44;99968.78;;;14.58;46.32
26711;BME280;18311;52.754;18.118;2023-02-18T07:11:19;99925.50;;;14.35;47.41
26711;BME280;18311;52.754;18.118;2023-02-18T07:13:55;99922.94;;;14.85;47.06
26711;BME280;18311;52.754;18.118;2023-02-18T07:16:31;99940.92;;;15.47;45.99
26711;BME280;18311;52.754;18.118;2023-02-18T07:33:31;99927.83;;;14.14;52.22
26711;BME280;18311;52.754;18.118;2023-02-18T07:36:02;99929.52;;;15.43;48.57
26711;BME280;18311;52.754;18.118;2023-02-18T07:38:33;99920.77;;;14.39;49.35
26711;BME280;18311;52.754;18.118;2023-02-18T07:41:04;99920.77;;;14.39;49.35
26711;BME280;18311;52.754;18.118;2023-02-18T07:43:34;99948.64;;;15.15;47.54
26711;BME280;18311;52.754;18.118;2023-02-18T07:46:06;99949.20;;;15.60;47.10
26711;BME280;18311;52.754;18.118;2023-02-18T07:48:37;99949.20;;;15.07;47.62
26711;BME280;18311;52.754;18.118;2023-02-18T08:03:37;99964.66;;;14.39;52.71
26711;BME280;18311;52.754;18.118;2023-02-18T08:06:12;99954.97;;;15.26;49.31
26711;BME280;18311;52.754;18.118;2023-02-18T08:08:39;99957.20;;;15.45;47.41
26711;BME280;18311;52.754;18.118;2023-02-18T08:11:10;99962.66;;;15.94;47.09
26711;BME280;18311;52.754;18.118;2023-02-18T08:13:42;99947.93;;;15.74;46.77
26711;BME280;18311;52.754;18.118;2023-02-18T08:16:16;99983.02;;;14.98;47.93
26711;BME280;18311;52.754;18.118;2023-02-18T08:18:49;100002.05;;;16.67;44.61
26711;BME280;18311;52.754;18.118;2023-02-18T08:21:21;100002.05;;;16.67;44.61
26711;BME280;18311;52.754;18.118;2023-02-18T09:02:52;99989.74;;;14.00;60.29
26711;BME280;18311;52.754;18.118;2023-02-18T09:05:22;100044.82;;;14.07;55.77
26711;BME280;18311;52.754;18.118;2023-02-18T09:07:53;99992.20;;;14.43;55.30
26711;BME280;18311;52.754;18.118;2023-02-18T09:10:24;100007.77;;;15.16;51.30
26711;BME280;18311;52.754;18.118;2023-02-18T09:12:56;100007.77;;;15.16;51.30
26711;BME280;18311;52.754;18.118;2023-02-18T09:15:26;100007.89;;;15.27;50.23
26711;BME280;18311;52.754;18.118;2023-02-18T09:17:57;100022.65;;;15.09;50.26
26711;BME280;18311;52.754;18.118;2023-02-18T09:20:29;100003.73;;;15.60;50.26
26711;BME280;18311;52.754;18.118;2023-02-18T09:22:59;100009.52;;;14.79;51.15
26711;BME280;18311;52.754;18.118;2023-02-18T09:25:33;100001.94;;;14.18;53.07
26711;BME280;18311;52.754;18.118;2023-02-18T09:28:03;100009.19;;;15.09;50.72
26711;BME280;18311;52.754;18.118;2023-02-18T09:30:34;99989.78;;;15.29;50.54
26711;BME280;18311;52.754;18.118;2023-02-18T09:33:04;99989.78;;;15.29;50.54
26711;BME280;18311;52.754;18.118;2023-02-18T09:35:40;100004.70;;;15.59;48.97
26711;BME280;18311;52.754;18.118;2023-02-18T09:38:13;100014.69;;;15.20;50.19
26711;BME280;18311;52.754;18.118;2023-02-18T09:40:47;99987.45;;;14.99;49.73
26711;BME280;18311;52.754;18.118;2023-02-18T09:43:32;99987.45;;;14.99;49.73
26711;BME280;18311;52.754;18.118;2023-02-18T09:46:04;100021.78;;;15.21;49.26
26711;BME280;18311;52.754;18.118;2023-02-18T09:48:37;100021.61;;;15.61;49.61
26711;BME280;18311;52.754;18.118;2023-02-18T09:51:10;100026.52;;;15.18;50.44
26711;BME280;18311;52.754;18.118;2023-02-18T09:53:42;99990.62;;;15.43;48.93
26711;BME280;18311;52.754;18.118;2023-02-18T09:56:27;99990.40;;;15.83;48.93
26711;BME280;18311;52.754;18.118;2023-02-18T09:58:59;99982.16;;;14.59;51.21
26711;BME280;18311;52.754;18.118;2023-02-18T10:01:35;99982.16;;;14.59;51.21
26711;BME280;18311;52.754;18.118;2023-02-18T10:04:16;100002.57;;;15.52;49.60
26711;BME280;18311;52.754;18.118;2023-02-18T10:06:49;99975.42;;;15.42;49.01
26711;BME280;18311;52.754;18.118;2023-02-18T10:09:27;99975.42;;;15.42;49.01
26711;BME280;18311;52.754;18.118;2023-02-18T10:12:33;99977.38;;;16.72;46.37
26711;BME280;18311;52.754;18.118;2023-02-18T10:14:36;100244.66;;;16.72;46.37
26711;BME280;18311;52.754;18.118;2023-02-18T10:17:09;99993.89;;;15.22;48.77
26711;BME280;18311;52.754;18.118;2023-02-18T10:19:40;99965.13;;;15.71;48.61
26711;BME280;18311;52.754;18.118;2023-02-18T10:22:13;99965.13;;;15.60;47.49
26711;BME280;18311;52.754;18.118;2023-02-18T10:25:02;99992.07;;;16.29;47.13
26711;BME280;18311;52.754;18.118;2023-02-18T10:27:33;99992.07;;;15.97;47.02
26711;BME280;18311;52.754;18.118;2023-02-18T10:30:32;99964.79;;;15.27;47.63
26711;BME280;18311;52.754;18.118;2023-02-18T10:33:18;99973.45;;;15.94;47.08
26711;BME280;18311;52.754;18.118;2023-02-18T10:35:53;99986.09;;;16.75;45.14
26711;BME280;18311;52.754;18.118;2023-02-18T10:38:31;99960.44;;;16.23;45.85
26711;BME280;18311;52.754;18.118;2023-02-18T10:41:04;99976.52;;;16.71;45.28
26711;BME280;18311;52.754;18.118;2023-02-18T10:43:44;99964.47;;;16.17;45.80
26711;BME280;18311;52.754;18.118;2023-02-18T10:46:43;99963.09;;;16.47;45.72
26711;BME280;18311;52.754;18.118;2023-02-18T10:49:36;99969.20;;;16.02;46.55
26711;BME280;18311;52.754;18.118;2023-02-18T10:52:08;99960.88;;;16.41;46.42
26711;BME280;18311;52.754;18.118;2023-02-18T10:54:50;99939.66;;;15.77;48.14
26711;BME280;18311;52.754;18.118;2023-02-18T10:57:22;99938.55;;;16.97;45.93
26711;BME280;18311;52.754;18.118;2023-02-18T11:02:33;99919.38;;;17.00;45.71
26711;BME280;18311;52.754;18.118;2023-02-18T11:05:24;99937.27;;;17.35;44.31
26711;BME280;18311;52.754;18.118;2023-02-18T11:07:58;99931.56;;;16.48;45.94
26711;BME280;18311;52.754;18.118;2023-02-18T11:10:38;99937.73;;;16.61;46.15
26711;BME280;18311;52.754;18.118;2023-02-18T11:13:06;99932.64;;;16.07;46.09
26711;BME280;18311;52.754;18.118;2023-02-18T11:15:37;99932.64;;;14.87;47.73
26711;BME280;18311;52.754;18.118;2023-02-18T11:18:27;99941.55;;;16.70;45.06
26711;BME280;18311;52.754;18.118;2023-02-18T11:20:59;99920.80;;;16.59;45.82
26711;BME280;18311;52.754;18.118;2023-02-18T11:23:30;99914.67;;;16.57;45.24
26711;BME280;18311;52.754;18.118;2023-02-18T11:26:09;99914.67;;;16.57;45.24
26711;BME280;18311;52.754;18.118;2023-02-18T11:28:49;99923.88;;;16.66;44.96
26711;BME280;18311;52.754;18.118;2023-02-18T11:31:25;99950.44;;;16.94;44.66
26711;BME280;18311;52.754;18.118;2023-02-18T11:33:58;99891.25;;;15.75;45.79
26711;BME280;18311;52.754;18.118;2023-02-18T11:36:34;99891.25;;;15.75;45.79
26711;BME280;18311;52.754;18.118;2023-02-18T11:39:16;99910.27;;;16.67;44.08
26711;BME280;18311;52.754;18.118;2023-02-18T11:41:52;99903.72;;;16.47;44.22
26711;BME280;18311;52.754;18.118;2023-02-18T11:44:27;99878.22;;;17.19;43.60
26711;BME280;18311;52.754;18.118;2023-02-18T11:47:01;99837.22;;;17.58;42.55
26711;BME280;18311;52.754;18.118;2023-02-18T11:49:34;99866.09;;;17.58;43.37
26711;BME280;18311;52.754;18.118;2023-02-18T11:52:16;99866.09;;;16.79;43.35
26711;BME280;18311;52.754;18.118;2023-02-18T11:55:06;99847.73;;;17.40;42.94
26711;BME280;18311;52.754;18.118;2023-02-18T11:57:40;99847.73;;;17.40;42.94
26711;BME280;18311;52.754;18.118;2023-02-18T12:00:23;99838.76;;;15.44;45.29
26711;BME280;18311;52.754;18.118;2023-02-18T12:02:54;99827.78;;;16.40;44.25
26711;BME280;18311;52.754;18.118;2023-02-18T12:05:27;99827.78;;;16.40;44.25
26711;BME280;18311;52.754;18.118;2023-02-18T12:08:09;99850.88;;;17.01;43.39
26711;BME280;18311;52.754;18.118;2023-02-18T12:10:41;99850.88;;;17.01;43.39
26711;BME280;18311;52.754;18.118;2023-02-18T12:13:42;99837.38;;;16.67;43.92
26711;BME280;18311;52.754;18.118;2023-02-18T12:21:53;99844.50;;;16.91;43.44
26711;BME280;18311;52.754;18.118;2023-02-18T12:24:30;99817.06;;;15.94;44.77
26711;BME280;18311;52.754;18.118;2023-02-18T12:27:23;99839.83;;;16.82;43.49
26711;BME280;18311;52.754;18.118;2023-02-18T12:35:52;99805.03;;;17.22;42.63
26711;BME280;18311;52.754;18.118;2023-02-18T12:38:53;99805.03;;;17.22;42.63
26711;BME280;18311;52.754;18.118;2023-02-18T12:49:38;99761.98;;;17.03;43.15
26711;BME280;18311;52.754;18.118;2023-02-18T12:52:11;99761.98;;;17.09;42.31
26711;BME280;18311;52.754;18.118;2023-02-18T12:54:55;99797.66;;;17.24;42.35
26711;BME280;18311;52.754;18.118;2023-02-18T12:57:32;99794.87;;;17.68;41.97
26711;BME280;18311;52.754;18.118;2023-02-18T13:00:30;99794.87;;;18.21;40.74
26711;BME280;18311;52.754;18.118;2023-02-18T13:09:06;99762.80;;;18.47;40.88
26711;BME280;18311;52.754;18.118;2023-02-18T13:11:49;99767.71;;;18.33;41.32
26711;BME280;18311;52.754;18.118;2023-02-18T13:14:27;99765.92;;;18.12;41.24
26711;BME280;18311;52.754;18.118;2023-02-18T13:16:59;99760.09;;;17.74;41.93
26711;BME280;18311;52.754;18.118;2023-02-18T13:19:46;99760.56;;;16.71;42.10
26711;BME280;18311;52.754;18.118;2023-02-18T13:22:18;99735.38;;;17.58;41.13
26711;BME280;18311;52.754;18.118;2023-02-18T13:24:51;99764.49;;;15.99;40.92
26711;BME280;18311;52.754;18.118;2023-02-18T13:30:48;99778.82;;;16.00;40.81
26711;BME280;18311;52.754;18.118;2023-02-18T13:38:54;99789.70;;;15.52;43.37
26711;BME280;18311;52.754;18.118;2023-02-18T13:41:25;99789.70;;;15.52;43.37
26711;BME280;18311;52.754;18.118;2023-02-18T13:43:56;99777.36;;;15.60;45.60
26711;BME280;18311;52.754;18.118;2023-02-18T13:46:27;99778.04;;;15.75;46.28
26711;BME280;18311;52.754;18.118;2023-02-18T13:49:10;99786.45;;;16.17;46.00
26711;BME280;18311;52.754;18.118;2023-02-18T13:51:46;99780.49;;;15.19;48.30
26711;BME280;18311;52.754;18.118;2023-02-18T13:57:21;99776.23;;;15.87;48.14
26711;BME280;18311;52.754;18.118;2023-02-18T14:00:04;99770.67;;;15.42;49.18
26711;BME280;18311;52.754;18.118;2023-02-18T14:02:35;99767.07;;;16.01;48.34
26711;BME280;18311;52.754;18.118;2023-02-18T14:08:07;99758.86;;;16.02;49.16
26711;BME280;18311;52.754;18.118;2023-02-18T14:10:34;99765.75;;;15.71;50.17
26711;BME280;18311;52.754;18.118;2023-02-18T14:13:24;99761.31;;;16.28;49.72
26711;BME280;18311;52.754;18.118;2023-02-18T14:15:56;99765.19;;;15.19;52.39
26711;BME280;18311;52.754;18.118;2023-02-18T14:23:55;99754.19;;;15.22;52.59
26711;BME280;18311;52.754;18.118;2023-02-18T14:26:31;99745.29;;;14.85;53.84
26711;BME280;18311;52.754;18.118;2023-02-18T14:29:25;99763.74;;;15.02;53.52
26711;BME280;18311;52.754;18.118;2023-02-18T14:31:42;99754.81;;;15.61;52.50
26711;BME280;18311;52.754;18.118;2023-02-18T14:34:19;99750.05;;;15.29;51.83
26711;BME280;18311;52.754;18.118;2023-02-18T14:42:49;99743.58;;;15.67;55.31
26711;BME280;18311;52.754;18.118;2023-02-18T14:48:06;99735.78;;;15.16;56.99
26711;BME280;18311;52.754;18.118;2023-02-18T14:50:36;99744.56;;;15.07;57.35
26711;BME280;18311;52.754;18.118;2023-02-18T14:53:19;99760.70;;;14.07;63.55
26711;BME280;18311;52.754;18.118;2023-02-18T14:55:59;99750.79;;;15.32;60.29
26711;BME280;18311;52.754;18.118;2023-02-18T14:58:35;99757.33;;;14.42;68.66
26711;BME280;18311;52.754;18.118;2023-02-18T15:01:31;99761.08;;;14.65;66.81
26711;BME280;18311;52.754;18.118;2023-02-18T15:03:40;99754.19;;;15.22;65.94
26711;BME280;18311;52.754;18.118;2023-02-18T15:06:35;99753.15;;;15.36;62.46
26711;BME280;18311;52.754;18.118;2023-02-18T15:09:00;99769.78;;;14.69;64.57
26711;BME280;18311;52.754;18.118;2023-02-18T15:11:46;99762.39;;;14.34;74.65
26711;BME280;18311;52.754;18.118;2023-02-18T15:14:21;99760.56;;;16.71;63.65
26711;BME280;18311;52.754;18.118;2023-02-18T15:16:49;99769.03;;;16.10;57.79
26711;BME280;18311;52.754;18.118;2023-02-18T15:19:25;99753.09;;;16.07;57.33
26711;BME280;18311;52.754;18.118;2023-02-18T15:21:56;99765.17;;;15.79;57.89
26711;BME280;18311;52.754;18.118;2023-02-18T15:24:34;99764.94;;;15.46;62.17
26711;BME280;18311;52.754;18.118;2023-02-18T15:27:30;99763.41;;;15.07;63.67
26711;BME280;18311;52.754;18.118;2023-02-18T15:32:58;99751.88;;;16.22;58.41
26711;BME280;18311;52.754;18.118;2023-02-18T15:35:31;99750.28;;;15.02;57.81
26711;BME280;18311;52.754;18.118;2023-02-18T15:38:02;99730.78;;;15.58;58.15
26711;BME280;18311;52.754;18.118;2023-02-18T15:40:34;99724.59;;;15.69;57.37
26711;BME280;18311;52.754;18.118;2023-02-18T15:43:07;99724.64;;;15.45;57.90
26711;BME280;18311;52.754;18.118;2023-02-18T15:45:43;99724.12;;;14.80;60.02
26711;BME280;18311;52.754;18.118;2023-02-18T15:48:22;99727.33;;;15.92;58.79
26711;BME280;18311;52.754;18.118;2023-02-18T15:50:55;99736.64;;;15.88;56.92
26711;BME280;18311;52.754;18.118;2023-02-18T15:53:28;99727.19;;;15.11;59.70
26711;BME280;18311;52.754;18.118;2023-02-18T15:55:59;99726.48;;;15.80;58.52
26711;BME280;18311;52.754;18.118;2023-02-18T15:58:31;99727.23;;;15.46;58.01
26711;BME280;18311;52.754;18.118;2023-02-18T16:01:04;99736.55;;;15.54;59.84
26711;BME280;18311;52.754;18.118;2023-02-18T16:09:11;99735.30;;;15.93;57.49
26711;BME280;18311;52.754;18.118;2023-02-18T16:11:47;99738.14;;;15.21;58.12
26711;BME280;18311;52.754;18.118;2023-02-18T16:14:55;99725.55;;;15.68;58.49
26711;BME280;18311;52.754;18.118;2023-02-18T16:17:14;99730.92;;;16.15;55.95
26711;BME280;18311;52.754;18.118;2023-02-18T16:19:50;99731.52;;;15.96;56.01
26711;BME280;18311;52.754;18.118;2023-02-18T16:25:25;99735.21;;;15.59;58.49
26711;BME280;18311;52.754;18.118;2023-02-18T16:28:03;99735.80;;;15.98;55.89
26711;BME280;18311;52.754;18.118;2023-02-18T16:30:34;99729.09;;;15.68;55.45
26711;BME280;18311;52.754;18.118;2023-02-18T16:33:06;99717.30;;;16.28;54.14
26711;BME280;18311;52.754;18.118;2023-02-18T16:35:36;99720.59;;;15.75;55.11
26711;BME280;18311;52.754;18.118;2023-02-18T16:38:17;99712.00;;;15.81;55.27
26711;BME280;18311;52.754;18.118;2023-02-18T16:40:49;99717.77;;;16.55;53.03
26711;BME280;18311;52.754;18.118;2023-02-18T16:43:22;99717.30;;;16.05;53.99
26711;BME280;18311;52.754;18.118;2023-02-18T16:45:55;99710.24;;;16.70;52.24
26711;BME280;18311;52.754;18.118;2023-02-18T16:48:35;99712.61;;;16.64;52.67
26711;BME280;18311;52.754;18.118;2023-02-18T16:51:16;99711.42;;;16.22;52.98
26711;BME280;18311;52.754;18.118;2023-02-18T16:53:42;99718.13;;;15.83;54.31
26711;BME280;18311;52.754;18.118;2023-02-18T16:56:16;99714.73;;;15.92;56.21
26711;BME280;18311;52.754;18.118;2023-02-18T16:58:46;99710.47;;;15.65;55.64
26711;BME280;18311;52.754;18.118;2023-02-18T17:01:33;99717.55;;;16.24;53.72
26711;BME280;18311;52.754;18.118;2023-02-18T17:04:00;99720.25;;;16.36;54.09
26711;BME280;18311;52.754;18.118;2023-02-18T17:06:31;99733.53;;;15.70;55.34
26711;BME280;18311;52.754;18.118;2023-02-18T17:09:14;99738.99;;;16.49;53.04
26711;BME280;18311;52.754;18.118;2023-02-18T17:11:35;99744.39;;;16.26;53.85
26711;BME280;18311;52.754;18.118;2023-02-18T17:14:05;99748.69;;;15.59;55.84
26711;BME280;18311;52.754;18.118;2023-02-18T17:16:37;99751.41;;;15.35;57.26
26711;BME280;18311;52.754;18.118;2023-02-18T17:19:07;99758.86;;;15.67;56.10
26711;BME280;18311;52.754;18.118;2023-02-18T17:21:38;99756.86;;;15.82;56.19